Time,TemperatureF,DewpointF,PressureIn,WindDirection,WindDirectionDegrees,WindSpeedMPH,WindSpeedGustMPH,Humidity,HourlyPrecipIn,Conditions,Clouds,dailyrainin,SoftwareType,DateUTC
2013-01-18 00:00:00,34.4,33.9,30.39,NNW,333,1.0,2.0,98,0.00,,---,0.00,VWS V13.00,2013-01-18 06:00:00,
2013-01-18 00:03:00,34.4,33.9,30.39,NNW,333,0.0,1.0,98,0.00,,---,0.02,VWS V13.00,2013-01-18 06:03:00,
2013-01-18 00:08:00,34.4,33.9,30.39,WNW,300,2.0,2.0,98,0.00,,---,0.00,VWS V13.00,2013-01-18 06:08:00,
2013-01-18 00:13:00,34.5,34.0,30.39,WNW,299,1.0,3.0,98,0.00,,---,0.00,VWS V13.00,2013-01-18 06:13:00,
2013-01-18 00:15:00,34.7,34.2,30.39,NNW,331,0.0,4.0,98,0.00,,---,0.00,VWS V13.00,2013-01-18 06:15:00,
2013-01-18 00:18:00,34.7,34.2,30.39,NNW,331,0.0,4.0,98,0.00,,---,0.00,VWS V13.00,2013-01-18 06:18:00,
2013-01-18 00:23:00,34.8,34.3,30.39,NNW,331,0.0,1.0,98,0.00,,---,0.00,VWS V13.00,2013-01-18 06:23:00,
2013-01-18 00:28:00,34.8,34.0,30.39,NNW,333,1.0,3.0,97,0.00,,---,0.00,VWS V13.00,2013-01-18 06:28:00,
2013-01-18 00:30:00,35.1,34.3,30.39,NNW,330,3.0,4.0,97,0.00,,---,0.00,VWS V13.00,2013-01-18 06:30:00,
2013-01-18 00:33:00,35.0,34.2,30.39,NNW,330,1.0,4.0,97,0.00,,---,0.00,VWS V13.00,2013-01-18 06:33:00,
2013-01-18 00:38:00,35.2,34.4,30.39,NNW,331,1.0,3.0,97,0.00,,---,0.00,VWS V13.00,2013-01-18 06:38:00,
2013-01-18 00:43:00,35.2,34.4,30.39,NNW,335,0.0,3.0,97,0.00,,---,0.00,VWS V13.00,2013-01-18 06:43:00,
2013-01-18 00:45:00,35.0,34.2,30.39,NNW,335,2.0,3.0,97,0.00,,---,0.00,VWS V13.00,2013-01-18 06:45:00,
2013-01-18 00:48:00,35.1,34.3,30.39,NNW,335,0.0,3.0,97,0.00,,---,0.00,VWS V13.00,2013-01-18 06:48:00,
2013-01-18 00:53:00,35.0,34.2,30.40,NNW,334,0.0,3.0,97,0.00,,---,0.00,VWS V13.00,2013-01-18 06:53:00,
2013-01-18 00:58:00,34.9,34.1,30.40,NNW,334,0.0,3.0,97,0.00,,---,0.00,VWS V13.00,2013-01-18 06:58:00,
2013-01-18 01:00:00,34.8,34.0,30.40,NNW,342,0.0,3.0,97,0.00,,---,0.00,VWS V13.00,2013-01-18 07:00:00,
2013-01-18 01:03:00,34.8,34.0,30.40,NNW,341,0.0,3.0,97,0.00,,---,0.00,VWS V13.00,2013-01-18 07:03:00,
2013-01-18 01:08:00,34.7,33.9,30.41,NNW,342,0.0,1.0,97,0.00,,---,0.00,VWS V13.00,2013-01-18 07:08:00,
2013-01-18 01:13:00,34.4,33.4,30.41,NNW,342,0.0,1.0,96,0.00,,---,0.00,VWS V13.00,2013-01-18 07:13:00,
2013-01-18 01:15:00,34.4,33.4,30.41,NNW,341,0.0,1.0,96,0.00,,---,0.00,VWS V13.00,2013-01-18 07:15:00,
2013-01-18 01:18:00,34.4,33.4,30.41,NNW,341,0.0,1.0,96,0.00,,---,0.00,VWS V13.00,2013-01-18 07:18:00,
2013-01-18 01:23:00,34.3,33.3,30.41,NNW,342,0.0,0.0,96,0.00,,---,0.00,VWS V13.00,2013-01-18 07:23:00,
2013-01-18 01:28:00,34.1,33.1,30.41,NNW,342,0.0,1.0,96,0.00,,---,0.00,VWS V13.00,2013-01-18 07:28:00,
2013-01-18 01:30:00,34.0,33.2,30.41,NNW,341,0.0,1.0,97,0.00,,---,0.00,VWS V13.00,2013-01-18 07:30:00,
2013-01-18 01:33:00,34.0,33.2,30.41,NNW,342,0.0,1.0,97,0.00,,---,0.00,VWS V13.00,2013-01-18 07:33:00,
2013-01-18 01:38:00,33.8,33.0,30.41,NNW,342,0.0,0.0,97,0.00,,---,0.00,VWS V13.00,2013-01-18 07:38:00,
2013-01-18 01:43:00,33.7,32.9,30.42,NNW,342,0.0,1.0,97,0.00,,---,0.00,VWS V13.00,2013-01-18 07:43:00,
2013-01-18 01:45:00,33.7,32.9,30.41,NNW,342,0.0,1.0,97,0.00,,---,0.00,VWS V13.00,2013-01-18 07:45:00,
2013-01-18 01:48:00,33.7,32.9,30.41,NNW,341,0.0,1.0,97,0.00,,---,0.00,VWS V13.00,2013-01-18 07:48:00,
2013-01-18 01:53:00,33.7,32.9,30.41,NNW,342,0.0,0.0,97,0.00,,---,0.00,VWS V13.00,2013-01-18 07:53:00,
2013-01-18 01:58:00,33.6,32.8,30.41,NNW,342,0.0,1.0,97,0.00,,---,0.00,VWS V13.00,2013-01-18 07:58:00,
2013-01-18 02:00:00,33.7,32.9,30.41,NNW,342,0.0,1.0,97,0.00,,---,0.00,VWS V13.00,2013-01-18 08:00:00,
2013-01-18 02:03:00,33.7,32.9,30.41,NNW,341,0.0,1.0,97,0.00,,---,0.00,VWS V13.00,2013-01-18 08:03:00,
2013-01-18 02:08:00,33.7,32.9,30.41,NW,318,1.0,4.0,97,0.00,,---,0.00,VWS V13.00,2013-01-18 08:08:00,
2013-01-18 02:13:00,33.6,32.8,30.41,NW,319,0.0,4.0,97,0.00,,---,0.00,VWS V13.00,2013-01-18 08:13:00,
2013-01-18 02:15:00,33.4,32.6,30.41,NW,319,0.0,4.0,97,0.00,,---,0.00,VWS V13.00,2013-01-18 08:15:00,
2013-01-18 02:18:00,33.5,32.7,30.41,NW,319,0.0,4.0,97,0.00,,---,0.00,VWS V13.00,2013-01-18 08:18:00,
2013-01-18 02:23:00,33.4,32.6,30.42,NW,318,0.0,0.0,97,0.00,,---,0.00,VWS V13.00,2013-01-18 08:23:00,
2013-01-18 02:28:00,33.3,32.5,30.42,NW,319,0.0,0.0,97,0.00,,---,0.00,VWS V13.00,2013-01-18 08:28:00,
2013-01-18 02:30:00,33.2,32.4,30.42,NW,318,0.0,0.0,97,0.00,,---,0.00,VWS V13.00,2013-01-18 08:30:00,
2013-01-18 02:33:00,33.2,32.4,30.42,NW,318,0.0,0.0,97,0.00,,---,0.00,VWS V13.00,2013-01-18 08:33:00,
2013-01-18 02:38:00,33.2,32.4,30.42,NW,318,0.0,1.0,97,0.00,,---,0.00,VWS V13.00,2013-01-18 08:38:00,
2013-01-18 02:43:00,33.2,32.4,30.42,NW,319,0.0,1.0,97,0.00,,---,0.00,VWS V13.00,2013-01-18 08:43:00,
2013-01-18 02:45:00,33.0,32.2,30.42,NW,319,0.0,2.0,97,0.00,,---,0.00,VWS V13.00,2013-01-18 08:45:00,
2013-01-18 02:48:00,33.0,32.2,30.42,NW,319,0.0,2.0,97,0.00,,---,0.00,VWS V13.00,2013-01-18 08:48:00,
2013-01-18 02:53:00,32.9,32.1,30.42,NW,319,0.0,1.0,97,0.00,,---,0.00,VWS V13.00,2013-01-18 08:53:00,
2013-01-18 02:58:00,32.7,31.9,30.42,NW,318,0.0,1.0,97,0.00,,---,0.00,VWS V13.00,2013-01-18 08:58:00,
2013-01-18 03:00:00,32.5,31.8,30.43,NW,319,0.0,1.0,97,0.00,,---,0.00,VWS V13.00,2013-01-18 09:00:00,
2013-01-18 03:03:00,32.6,31.8,30.43,NW,319,0.0,1.0,97,0.00,,---,0.00,VWS V13.00,2013-01-18 09:03:00,
2013-01-18 03:08:00,32.5,32.0,30.43,NW,319,0.0,1.0,98,0.00,,---,0.00,VWS V13.00,2013-01-18 09:08:00,
2013-01-18 03:13:00,32.3,31.5,30.43,NW,319,0.0,1.0,97,0.00,,---,0.00,VWS V13.00,2013-01-18 09:13:00,
2013-01-18 03:15:00,32.4,31.9,30.43,NW,319,1.0,1.0,98,0.00,,---,0.00,VWS V13.00,2013-01-18 09:15:00,
2013-01-18 03:18:00,32.4,31.9,30.43,NW,319,0.0,1.0,98,0.00,,---,0.00,VWS V13.00,2013-01-18 09:18:00,
2013-01-18 03:23:00,32.4,31.9,30.43,NW,319,0.0,1.0,98,0.00,,---,0.00,VWS V13.00,2013-01-18 09:23:00,
2013-01-18 03:28:00,32.4,31.9,30.43,NW,322,0.0,2.0,98,0.00,,---,0.00,VWS V13.00,2013-01-18 09:28:00,
2013-01-18 03:30:00,32.3,31.8,30.43,NW,323,0.0,2.0,98,0.00,,---,0.00,VWS V13.00,2013-01-18 09:30:00,
2013-01-18 03:33:00,32.3,31.8,30.43,NW,323,0.0,2.0,98,0.00,,---,0.00,VWS V13.00,2013-01-18 09:33:00,
2013-01-18 03:38:00,32.3,31.8,30.43,NW,323,0.0,1.0,98,0.00,,---,0.00,VWS V13.00,2013-01-18 09:38:00,
2013-01-18 03:43:00,32.2,31.7,30.43,NW,322,0.0,1.0,98,0.00,,---,0.00,VWS V13.00,2013-01-18 09:43:00,
2013-01-18 03:45:00,32.3,31.8,30.43,NW,322,0.0,1.0,98,0.00,,---,0.00,VWS V13.00,2013-01-18 09:45:00,
2013-01-18 03:48:00,32.3,31.8,30.43,NW,322,0.0,1.0,98,0.00,,---,0.00,VWS V13.00,2013-01-18 09:48:00,
2013-01-18 03:53:00,32.3,31.8,30.43,NW,323,0.0,1.0,98,0.00,,---,0.00,VWS V13.00,2013-01-18 09:53:00,
2013-01-18 03:58:00,32.3,31.8,30.43,NW,322,0.0,1.0,98,0.00,,---,0.00,VWS V13.00,2013-01-18 09:58:00,
2013-01-18 04:00:00,31.9,31.4,30.43,NW,322,0.0,1.0,98,0.00,,---,0.00,VWS V13.00,2013-01-18 10:00:00,
2013-01-18 04:03:00,32.0,31.5,30.43,NW,322,0.0,1.0,98,0.00,,---,0.00,VWS V13.00,2013-01-18 10:03:00,
2013-01-18 04:08:00,31.6,31.1,30.44,NW,322,0.0,0.0,98,0.00,,---,0.00,VWS V13.00,2013-01-18 10:08:00,
2013-01-18 04:13:00,31.4,30.9,30.44,NW,323,0.0,0.0,98,0.00,,---,0.00,VWS V13.00,2013-01-18 10:13:00,
2013-01-18 04:15:00,31.6,31.1,30.44,NW,322,0.0,1.0,98,0.00,,---,0.00,VWS V13.00,2013-01-18 10:15:00,
2013-01-18 04:18:00,31.5,31.0,30.44,NW,323,0.0,1.0,98,0.00,,---,0.00,VWS V13.00,2013-01-18 10:18:00,
2013-01-18 04:23:00,31.7,31.2,30.44,NW,322,0.0,0.0,98,0.00,,---,0.00,VWS V13.00,2013-01-18 10:23:00,
2013-01-18 04:28:00,31.7,31.2,30.44,NW,323,0.0,0.0,98,0.00,,---,0.00,VWS V13.00,2013-01-18 10:28:00,
2013-01-18 04:30:00,31.5,31.0,30.44,NW,323,0.0,2.0,98,0.00,,---,0.00,VWS V13.00,2013-01-18 10:30:00,
2013-01-18 04:33:00,31.6,31.1,30.44,NW,323,0.0,2.0,98,0.00,,---,0.00,VWS V13.00,2013-01-18 10:33:00,
2013-01-18 04:38:00,31.4,30.9,30.45,NW,323,0.0,1.0,98,0.00,,---,0.00,VWS V13.00,2013-01-18 10:38:00,
2013-01-18 04:43:00,31.1,30.6,30.45,NW,323,0.0,1.0,98,0.00,,---,0.00,VWS V13.00,2013-01-18 10:43:00,
2013-01-18 04:45:00,31.0,30.5,30.46,NW,323,0.0,1.0,98,0.00,,---,0.00,VWS V13.00,2013-01-18 10:45:00,
2013-01-18 04:48:00,31.0,30.5,30.46,NW,323,0.0,1.0,98,0.00,,---,0.00,VWS V13.00,2013-01-18 10:48:00,
2013-01-18 04:53:00,30.9,30.4,30.46,NW,323,0.0,0.0,98,0.00,,---,0.00,VWS V13.00,2013-01-18 10:53:00,
2013-01-18 04:58:00,30.8,30.3,30.46,NW,322,0.0,0.0,98,0.00,,---,0.00,VWS V13.00,2013-01-18 10:58:00,
2013-01-18 05:00:00,30.7,30.2,30.47,NW,322,0.0,0.0,98,0.00,,---,0.00,VWS V13.00,2013-01-18 11:00:00,
2013-01-18 05:03:00,30.7,30.2,30.47,NW,322,0.0,0.0,98,0.00,,---,0.00,VWS V13.00,2013-01-18 11:03:00,
2013-01-18 05:08:00,30.5,30.0,30.47,NW,323,0.0,0.0,98,0.00,,---,0.00,VWS V13.00,2013-01-18 11:08:00,
2013-01-18 05:13:00,30.5,30.0,30.47,NW,323,0.0,0.0,98,0.00,,---,0.00,VWS V13.00,2013-01-18 11:13:00,
2013-01-18 05:15:00,30.5,30.0,30.47,NW,322,1.0,1.0,98,0.00,,---,0.00,VWS V13.00,2013-01-18 11:15:00,
2013-01-18 05:18:00,30.5,30.0,30.47,NW,323,0.0,0.0,98,0.00,,---,0.00,VWS V13.00,2013-01-18 11:18:00,
2013-01-18 05:23:00,30.5,30.0,30.47,NW,322,0.0,1.0,98,0.00,,---,0.00,VWS V13.00,2013-01-18 11:23:00,
2013-01-18 05:28:00,30.5,30.0,30.47,NW,323,0.0,1.0,98,0.00,,---,0.00,VWS V13.00,2013-01-18 11:28:00,
2013-01-18 05:30:00,30.5,30.0,30.48,NW,323,0.0,1.0,98,0.00,,---,0.00,VWS V13.00,2013-01-18 11:30:00,
2013-01-18 05:33:00,30.5,30.0,30.48,NW,322,0.0,1.0,98,0.00,,---,0.00,VWS V13.00,2013-01-18 11:33:00,
2013-01-18 05:38:00,30.3,29.8,30.48,NW,322,0.0,0.0,98,0.00,,---,0.00,VWS V13.00,2013-01-18 11:38:00,
2013-01-18 05:43:00,30.2,29.7,30.48,NW,322,0.0,0.0,98,0.00,,---,0.00,VWS V13.00,2013-01-18 11:43:00,
2013-01-18 05:45:00,30.1,29.6,30.48,NW,323,0.0,0.0,98,0.00,,---,0.00,VWS V13.00,2013-01-18 11:45:00,
2013-01-18 05:48:00,30.1,29.6,30.48,NW,323,0.0,0.0,98,0.00,,---,0.00,VWS V13.00,2013-01-18 11:48:00,
2013-01-18 05:53:00,30.0,29.5,30.48,NW,323,0.0,0.0,98,0.00,,---,0.00,VWS V13.00,2013-01-18 11:53:00,
2013-01-18 05:58:00,30.0,29.5,30.49,NW,322,0.0,0.0,98,0.00,,---,0.00,VWS V13.00,2013-01-18 11:58:00,
2013-01-18 06:00:00,30.1,29.6,30.49,NW,323,0.0,0.0,98,0.00,,---,0.00,VWS V13.00,2013-01-18 12:00:00,
2013-01-18 06:03:00,30.1,29.6,30.49,NW,323,0.0,0.0,98,0.00,,---,0.00,VWS V13.00,2013-01-18 12:03:00,
2013-01-18 06:08:00,30.2,29.7,30.49,NW,323,0.0,1.0,98,0.00,,---,0.00,VWS V13.00,2013-01-18 12:08:00,
2013-01-18 06:13:00,30.2,29.7,30.50,NW,323,0.0,1.0,98,0.00,,---,0.00,VWS V13.00,2013-01-18 12:13:00,
2013-01-18 06:15:00,30.1,29.6,30.50,NW,322,0.0,1.0,98,0.00,,---,0.00,VWS V13.00,2013-01-18 12:15:00,
2013-01-18 06:18:00,30.2,29.7,30.50,NW,322,0.0,1.0,98,0.00,,---,0.00,VWS V13.00,2013-01-18 12:18:00,
2013-01-18 06:23:00,30.1,29.6,30.50,NW,322,0.0,0.0,98,0.00,,---,0.00,VWS V13.00,2013-01-18 12:23:00,
2013-01-18 06:28:00,30.1,29.6,30.50,NNW,327,1.0,2.0,98,0.00,,---,0.00,VWS V13.00,2013-01-18 12:28:00,
2013-01-18 06:30:00,30.3,29.8,30.50,NW,326,1.0,2.0,98,0.00,,---,0.00,VWS V13.00,2013-01-18 12:30:00,
2013-01-18 06:33:00,30.3,29.8,30.50,NNW,327,0.0,2.0,98,0.00,,---,0.00,VWS V13.00,2013-01-18 12:33:00,
2013-01-18 06:38:00,30.6,30.4,30.50,NNW,327,0.0,2.0,99,0.00,,---,0.00,VWS V13.00,2013-01-18 12:38:00,
2013-01-18 06:43:00,30.8,30.5,30.50,NNW,329,0.0,3.0,99,0.00,,---,0.00,VWS V13.00,2013-01-18 12:43:00,
2013-01-18 06:45:00,30.9,30.4,30.50,NNW,329,0.0,3.0,98,0.00,,---,0.00,VWS V13.00,2013-01-18 12:45:00,
2013-01-18 06:48:00,30.8,30.5,30.50,NNW,329,0.0,3.0,99,0.00,,---,0.00,VWS V13.00,2013-01-18 12:48:00,
2013-01-18 06:53:00,30.9,30.4,30.50,NNW,329,0.0,2.0,98,0.00,,---,0.00,VWS V13.00,2013-01-18 12:53:00,
2013-01-18 06:58:00,30.9,30.4,30.51,NW,323,3.0,3.0,98,0.00,,---,0.00,VWS V13.00,2013-01-18 12:58:00,
2013-01-18 07:00:00,31.1,30.9,30.51,North,5,0.0,3.0,99,0.00,,---,0.00,VWS V13.00,2013-01-18 13:00:00,
2013-01-18 07:03:00,31.0,30.8,30.51,North,5,2.0,3.0,99,0.00,,---,0.00,VWS V13.00,2013-01-18 13:03:00,
2013-01-18 07:08:00,31.1,30.9,30.51,NW,321,0.0,3.0,99,0.00,,---,0.00,VWS V13.00,2013-01-18 13:08:00,
2013-01-18 07:13:00,31.1,30.9,30.51,NW,326,0.0,3.0,99,0.00,,---,0.00,VWS V13.00,2013-01-18 13:13:00,
2013-01-18 07:15:00,31.1,30.9,30.51,NNW,327,0.0,3.0,99,0.00,,---,0.00,VWS V13.00,2013-01-18 13:15:00,
2013-01-18 07:18:00,31.1,30.9,30.51,NNW,327,0.0,3.0,99,0.00,,---,0.00,VWS V13.00,2013-01-18 13:18:00,
2013-01-18 07:23:00,31.1,30.9,30.52,NNW,327,0.0,0.0,99,0.00,,---,0.00,VWS V13.00,2013-01-18 13:23:00,
2013-01-18 07:28:00,31.2,31.0,30.52,North,355,0.0,3.0,99,0.00,,---,0.00,VWS V13.00,2013-01-18 13:28:00,
2013-01-18 07:30:00,31.3,31.0,30.52,North,355,0.0,3.0,99,0.00,,---,0.00,VWS V13.00,2013-01-18 13:30:00,
2013-01-18 07:33:00,31.3,31.0,30.52,North,355,0.0,3.0,99,0.00,,---,0.00,VWS V13.00,2013-01-18 13:33:00,
2013-01-18 07:38:00,31.4,31.1,30.52,North,355,0.0,0.0,99,0.00,,---,0.00,VWS V13.00,2013-01-18 13:38:00,
2013-01-18 07:43:00,31.5,31.2,30.52,North,355,1.0,1.0,99,0.00,,---,0.00,VWS V13.00,2013-01-18 13:43:00,
2013-01-18 07:45:00,31.7,31.5,30.52,North,355,0.0,1.0,99,0.00,,---,0.00,VWS V13.00,2013-01-18 13:45:00,
2013-01-18 07:48:00,31.6,31.4,30.52,North,355,0.0,1.0,99,0.00,,---,0.00,VWS V13.00,2013-01-18 13:48:00,
2013-01-18 07:53:00,31.8,31.5,30.52,WNW,302,1.0,3.0,99,0.00,,---,0.00,VWS V13.00,2013-01-18 13:53:00,
2013-01-18 07:58:00,32.0,31.8,30.53,WNW,303,0.0,3.0,99,0.00,,---,0.00,VWS V13.00,2013-01-18 13:58:00,
2013-01-18 08:00:00,32.2,32.0,30.53,North,355,0.0,4.0,99,0.00,,---,0.00,VWS V13.00,2013-01-18 14:00:00,
2013-01-18 08:03:00,32.2,32.0,30.53,NW,325,2.0,4.0,99,0.00,,---,0.00,VWS V13.00,2013-01-18 14:03:00,
2013-01-18 08:08:00,32.4,32.2,30.53,North,355,0.0,1.0,99,0.00,,---,0.00,VWS V13.00,2013-01-18 14:08:00,
2013-01-18 08:13:00,32.6,32.3,30.54,North,355,0.0,1.0,99,0.00,,---,0.00,VWS V13.00,2013-01-18 14:13:00,
2013-01-18 08:15:00,32.7,32.5,30.54,North,351,0.0,2.0,99,0.00,,---,0.00,VWS V13.00,2013-01-18 14:15:00,
2013-01-18 08:18:00,32.7,32.5,30.54,North,350,1.0,2.0,99,0.00,,---,0.00,VWS V13.00,2013-01-18 14:18:00,
2013-01-18 08:23:00,32.8,32.5,30.54,NNW,333,0.0,5.0,99,0.00,,---,0.00,VWS V13.00,2013-01-18 14:23:00,
2013-01-18 08:28:00,33.0,32.5,30.54,NNW,333,0.0,5.0,98,0.00,,---,0.00,VWS V13.00,2013-01-18 14:28:00,
2013-01-18 08:30:00,33.3,33.0,30.54,NNW,333,0.0,5.0,99,0.00,,---,0.00,VWS V13.00,2013-01-18 14:30:00,
2013-01-18 08:33:00,33.2,33.0,30.55,NNW,333,1.0,5.0,99,0.00,,---,0.00,VWS V13.00,2013-01-18 14:33:00,
2013-01-18 08:38:00,33.5,33.0,30.55,NNW,333,0.0,1.0,98,0.00,,---,0.00,VWS V13.00,2013-01-18 14:38:00,
2013-01-18 08:43:00,33.9,33.7,30.55,NNW,333,0.0,1.0,99,0.00,,---,0.00,VWS V13.00,2013-01-18 14:43:00,
2013-01-18 08:45:00,34.4,33.9,30.55,NNW,333,0.0,2.0,98,0.00,,---,0.00,VWS V13.00,2013-01-18 14:45:00,
2013-01-18 08:48:00,34.4,33.9,30.55,NNW,333,0.0,2.0,98,0.00,,---,0.00,VWS V13.00,2013-01-18 14:48:00,
2013-01-18 08:53:00,34.5,34.0,30.55,North,355,1.0,4.0,98,0.00,,---,0.00,VWS V13.00,2013-01-18 14:53:00,
2013-01-18 08:58:00,35.0,34.5,30.56,NW,325,2.0,6.0,98,0.00,,---,0.00,VWS V13.00,2013-01-18 14:58:00,
2013-01-18 09:00:00,35.6,35.1,30.56,NW,325,0.0,6.0,98,0.00,,---,0.00,VWS V13.00,2013-01-18 15:00:00,
2013-01-18 09:03:00,35.5,35.0,30.56,NW,325,0.0,6.0,98,0.00,,---,0.00,VWS V13.00,2013-01-18 15:03:00,
2013-01-18 09:08:00,36.0,35.5,30.56,NW,325,0.0,2.0,98,0.00,,---,0.00,VWS V13.00,2013-01-18 15:08:00,
2013-01-18 09:13:00,36.4,35.6,30.56,NNE,22,0.0,3.0,97,0.00,,---,0.00,VWS V13.00,2013-01-18 15:13:00,
2013-01-18 09:15:00,36.8,35.8,30.56,NNE,21,1.0,3.0,96,0.00,,---,0.00,VWS V13.00,2013-01-18 15:15:00,
2013-01-18 09:18:00,36.8,35.8,30.56,NNE,21,0.0,3.0,96,0.00,,---,0.00,VWS V13.00,2013-01-18 15:18:00,
2013-01-18 09:23:00,36.9,35.9,30.57,NNE,27,1.0,2.0,96,0.00,,---,0.00,VWS V13.00,2013-01-18 15:23:00,
2013-01-18 09:29:00,37.1,35.8,30.57,NW,323,1.0,6.0,95,0.00,,---,0.00,VWS V13.00,2013-01-18 15:29:00,
2013-01-18 09:30:00,37.3,35.7,30.57,North,360,1.0,6.0,94,0.00,,---,0.00,VWS V13.00,2013-01-18 15:30:00,
2013-01-18 09:35:00,37.4,35.8,30.57,North,360,0.0,2.0,94,0.00,,---,0.00,VWS V13.00,2013-01-18 15:35:00,
2013-01-18 09:40:00,37.8,36.2,30.57,NE,42,2.0,4.0,94,0.00,,---,0.00,VWS V13.00,2013-01-18 15:40:00,
2013-01-18 09:45:00,38.3,36.5,30.57,NE,36,1.0,4.0,93,0.00,,---,0.00,VWS V13.00,2013-01-18 15:45:00,
2013-01-18 09:50:00,38.6,36.5,30.56,NNW,339,2.0,5.0,92,0.00,,---,0.00,VWS V13.00,2013-01-18 15:50:00,
2013-01-18 09:55:00,39.0,36.6,30.56,North,9,1.0,5.0,91,0.00,,---,0.00,VWS V13.00,2013-01-18 15:55:00,
2013-01-18 10:00:00,39.6,37.2,30.56,North,5,0.0,5.0,91,0.00,,---,0.00,VWS V13.00,2013-01-18 16:00:00,
2013-01-18 10:05:00,40.1,37.4,30.56,North,5,0.0,1.0,90,0.00,,---,0.00,VWS V13.00,2013-01-18 16:05:00,
2013-01-18 10:10:00,40.7,38.0,30.56,NNE,17,3.0,3.0,90,0.00,,---,0.00,VWS V13.00,2013-01-18 16:10:00,
2013-01-18 10:15:00,40.9,37.6,30.56,NE,39,2.0,5.0,88,0.00,,---,0.00,VWS V13.00,2013-01-18 16:15:00,
2013-01-18 10:20:00,41.0,37.1,30.56,NE,34,0.0,3.0,86,0.00,,---,0.00,VWS V13.00,2013-01-18 16:20:00,
2013-01-18 10:25:00,41.3,37.4,30.56,NE,40,0.0,4.0,86,0.00,,---,0.00,VWS V13.00,2013-01-18 16:25:00,
2013-01-18 10:30:00,41.5,37.3,30.56,NNE,27,0.0,4.0,85,0.00,,---,0.00,VWS V13.00,2013-01-18 16:30:00,
2013-01-18 10:35:00,41.9,37.7,30.55,ENE,58,0.0,2.0,85,0.00,,---,0.00,VWS V13.00,2013-01-18 16:35:00,
2013-01-18 10:40:00,42.1,37.0,30.55,NE,46,3.0,4.0,82,0.00,,---,0.00,VWS V13.00,2013-01-18 16:40:00,
2013-01-18 10:45:00,42.2,37.4,30.55,NE,52,1.0,4.0,83,0.00,,---,0.00,VWS V13.00,2013-01-18 16:45:00,
2013-01-18 10:50:00,42.3,37.2,30.55,NE,53,3.0,3.0,82,0.00,,---,0.00,VWS V13.00,2013-01-18 16:50:00,
2013-01-18 10:55:00,42.5,37.7,30.55,NE,45,0.0,4.0,83,0.00,,---,0.00,VWS V13.00,2013-01-18 16:55:00,
2013-01-18 11:00:00,42.8,37.7,30.54,SE,128,2.0,4.0,82,0.00,,---,0.00,VWS V13.00,2013-01-18 17:00:00,
2013-01-18 11:05:00,43.2,37.8,30.54,North,350,3.0,3.0,81,0.00,,---,0.00,VWS V13.00,2013-01-18 17:05:00,
2013-01-18 11:15:00,43.7,37.6,30.53,North,0,2.0,5.0,79,0.00,,---,0.00,VWS V13.00,2013-01-18 17:15:00,
2013-01-18 11:30:00,44.6,37.2,30.52,NE,45,1.0,5.0,75,0.00,,---,0.00,VWS V13.00,2013-01-18 17:30:00,
2013-01-18 11:45:00,44.8,36.7,30.51,North,0,2.0,5.0,73,0.00,,---,0.00,VWS V13.00,2013-01-18 17:45:00,
2013-01-18 12:00:00,45.6,37.5,30.50,NNW,338,2.0,6.0,73,0.00,,---,0.00,VWS V13.00,2013-01-18 18:00:00,
2013-01-18 12:15:00,46.3,38.1,30.50,NNE,22,2.0,5.0,73,0.00,,---,0.00,VWS V13.00,2013-01-18 18:15:00,
2013-01-18 12:30:00,47.0,37.0,30.49,NNE,22,2.0,9.0,68,0.00,,---,0.00,VWS V13.00,2013-01-18 18:30:00,
2013-01-18 12:45:00,47.8,37.4,30.48,NNW,338,2.0,5.0,67,0.00,,---,0.00,VWS V13.00,2013-01-18 18:45:00,
2013-01-18 13:00:00,48.4,37.6,30.48,North,0,1.0,4.0,66,0.00,,---,0.00,VWS V13.00,2013-01-18 19:00:00,
2013-01-18 13:15:00,48.9,37.3,30.47,North,0,1.0,7.0,64,0.00,,---,0.00,VWS V13.00,2013-01-18 19:15:00,
2013-01-18 13:30:00,49.1,36.2,30.47,NNW,338,2.0,10.0,61,0.00,,---,0.00,VWS V13.00,2013-01-18 19:30:00,
2013-01-18 13:45:00,49.8,37.3,30.47,NNW,338,3.0,8.0,62,0.00,,---,0.00,VWS V13.00,2013-01-18 19:45:00,
2013-01-18 14:00:00,50.3,36.1,30.46,NNW,338,2.0,9.0,58,0.00,,---,0.00,VWS V13.00,2013-01-18 20:00:00,
2013-01-18 14:15:00,50.6,35.5,30.46,North,0,2.0,6.0,56,0.00,,---,0.00,VWS V13.00,2013-01-18 20:15:00,
2013-01-18 14:30:00,50.9,35.8,30.45,NNW,338,2.0,6.0,56,0.00,,---,0.00,VWS V13.00,2013-01-18 20:30:00,
2013-01-18 14:45:00,51.2,36.1,30.45,North,0,2.0,5.0,56,0.00,,---,0.00,VWS V13.00,2013-01-18 20:45:00,
2013-01-18 15:00:00,51.5,36.8,30.45,NE,45,1.0,5.0,57,0.00,,---,0.00,VWS V13.00,2013-01-18 21:00:00,
2013-01-18 15:15:00,51.4,35.8,30.44,NE,45,1.0,4.0,55,0.00,,---,0.00,VWS V13.00,2013-01-18 21:15:00,
2013-01-18 15:30:00,51.4,35.3,30.44,NNW,338,1.0,5.0,54,0.00,,---,0.00,VWS V13.00,2013-01-18 21:30:00,
2013-01-18 15:45:00,51.2,35.1,30.44,NNW,338,1.0,4.0,54,0.00,,---,0.00,VWS V13.00,2013-01-18 21:45:00,
2013-01-18 16:00:00,50.9,34.9,30.44,NNW,338,1.0,4.0,54,0.00,,---,0.00,VWS V13.00,2013-01-18 22:00:00,
2013-01-18 16:15:00,50.6,35.9,30.44,NNW,338,0.0,2.0,57,0.00,,---,0.00,VWS V13.00,2013-01-18 22:15:00,
2013-01-18 16:30:00,50.0,36.2,30.44,NNW,338,0.0,2.0,59,0.00,,---,0.00,VWS V13.00,2013-01-18 22:30:00,
2013-01-18 16:45:00,49.2,36.8,30.43,NNW,338,0.0,1.0,62,0.00,,---,0.00,VWS V13.00,2013-01-18 22:45:00,
2013-01-18 17:00:00,47.8,36.6,30.43,NNW,338,0.0,0.0,65,0.00,,---,0.00,VWS V13.00,2013-01-18 23:00:00,
2013-01-18 17:15:00,46.1,36.1,30.44,NNW,338,0.0,0.0,68,0.00,,---,0.00,VWS V13.00,2013-01-18 23:15:00,
2013-01-18 17:30:00,44.8,36.3,30.44,NNW,338,0.0,0.0,72,0.00,,---,0.00,VWS V13.00,2013-01-18 23:30:00,
2013-01-18 17:45:00,43.5,36.1,30.44,NNW,338,0.0,0.0,75,0.00,,---,0.00,VWS V13.00,2013-01-18 23:45:00,
2013-01-18 18:00:00,42.6,36.2,30.44,NNW,338,0.0,0.0,78,0.00,,---,0.00,VWS V13.00,2013-01-19 00:00:00,
2013-01-18 18:15:00,41.6,35.9,30.44,NNW,338,0.0,0.0,80,0.00,,---,0.00,VWS V13.00,2013-01-19 00:15:00,
2013-01-18 18:30:00,40.6,35.5,30.44,NNW,338,0.0,0.0,82,0.00,,---,0.00,VWS V13.00,2013-01-19 00:30:00,
2013-01-18 18:45:00,39.7,35.6,30.45,NNW,338,0.0,0.0,85,0.00,,---,0.00,VWS V13.00,2013-01-19 00:45:00,
2013-01-18 19:00:00,39.1,35.3,30.45,NNW,338,0.0,0.0,86,0.00,,---,0.00,VWS V13.00,2013-01-19 01:00:00,
2013-01-18 19:15:00,38.3,35.1,30.45,NNW,338,0.0,0.0,88,0.00,,---,0.00,VWS V13.00,2013-01-19 01:15:00,
2013-01-18 19:30:00,37.8,34.9,30.45,NNW,338,0.0,0.0,89,0.00,,---,0.00,VWS V13.00,2013-01-19 01:30:00,
2013-01-18 19:45:00,37.4,34.7,30.45,NNW,338,0.0,0.0,90,0.00,,---,0.00,VWS V13.00,2013-01-19 01:45:00,
2013-01-18 20:00:00,36.8,34.4,30.44,NNW,338,0.0,0.0,91,0.00,,---,0.00,VWS V13.00,2013-01-19 02:00:00,
2013-01-18 20:15:00,36.0,33.6,30.44,NNW,338,0.0,0.0,91,0.00,,---,0.00,VWS V13.00,2013-01-19 02:15:00,
2013-01-18 20:30:00,35.7,33.6,30.44,NNW,338,0.0,0.0,92,0.00,,---,0.00,VWS V13.00,2013-01-19 02:30:00,
2013-01-18 20:45:00,35.2,33.4,30.44,NNW,338,0.0,0.0,93,0.00,,---,0.00,VWS V13.00,2013-01-19 02:45:00,
2013-01-18 21:00:00,34.7,33.2,30.44,NNW,338,0.0,0.0,94,0.00,,---,0.00,VWS V13.00,2013-01-19 03:00:00,
2013-01-18 21:15:00,34.4,33.1,30.44,NNW,338,0.0,0.0,95,0.00,,---,0.00,VWS V13.00,2013-01-19 03:15:00,
2013-01-18 21:30:00,34.7,33.4,30.43,NNW,338,0.0,0.0,95,0.00,,---,0.00,VWS V13.00,2013-01-19 03:30:00,
2013-01-18 21:45:00,34.8,33.5,30.43,NNW,338,0.0,0.0,95,0.00,,---,0.00,VWS V13.00,2013-01-19 03:45:00,
2013-01-18 22:00:00,34.6,33.3,30.43,NNW,338,0.0,0.0,95,0.00,,---,0.00,VWS V13.00,2013-01-19 04:00:00,
2013-01-18 22:15:00,34.4,33.1,30.43,NNW,338,0.0,0.0,95,0.00,,---,0.00,VWS V13.00,2013-01-19 04:15:00,
2013-01-18 22:30:00,33.9,32.6,30.42,NNW,338,0.0,0.0,95,0.00,,---,0.00,VWS V13.00,2013-01-19 04:30:00,
2013-01-18 22:45:00,33.2,31.9,30.42,NNW,338,0.0,0.0,95,0.00,,---,0.00,VWS V13.00,2013-01-19 04:45:00,
2013-01-18 23:00:00,32.7,31.7,30.42,NNW,338,0.0,0.0,96,0.00,,---,0.00,VWS V13.00,2013-01-19 05:00:00,
2013-01-18 23:15:00,32.6,31.6,30.42,NNW,338,0.0,0.0,96,0.00,,---,0.00,VWS V13.00,2013-01-19 05:15:00,
2013-01-18 23:30:00,32.7,31.7,30.42,NNW,338,0.0,0.0,96,0.00,,---,0.00,VWS V13.00,2013-01-19 05:30:00,
2013-01-18 23:45:00,32.7,31.7,30.42,NNW,338,0.0,0.0,96,0.00,,---,0.00,VWS V13.00,2013-01-19 05:45:00,